Latest Weather Observations for Flinders Island Airport

IDT60801

Issued at 9:05 pm EST Tuesday 2 September 2014 (issued every 30 minutes, with the page automatically refreshed every 10 minutes)

About weather observations | Map of weather stations | Latest weather observations for TAS | Other Formats
Station Details ID: 099005 Name: FLINDERS ISLAND AIRPORT Lat: -40.09 Lon: 148.00 Height: 9.0 m
Data from the previous 72 hours. | See also: Recent months at Flinders Island Airport
Date/Time
EST
Temp
°C
App
Temp
°C
Dew
Point
Rel
Hum
%
Delta-T
°C
Wind Press
QNH
hPa
Press
MSL
hPa
Rain
since 9 am
mm
Dir
 
Spd
km/h
Gust
km/h
Spd
kts
Gust
kts
02/09:00pm 7.2 3.9 2.5 72 1.9 E 9 13 5 7 1019.6 1019.6 0.0
02/08:30pm 10.7 7.1 4.8 67 2.7 S 13 19 7 10 1019.3 1019.3 0.0
02/08:00pm 11.4 5.8 5.3 66 2.8 SSW 24 35 13 19 1019.1 1019.1 0.0
02/07:30pm 11.4 5.4 5.3 66 2.8 SW 26 32 14 17 1019.1 1019.1 0.0
02/07:00pm 10.8 5.5 4.9 67 2.7 WSW 22 28 12 15 1018.9 1018.9 0.0
02/06:30pm 11.0 5.3 5.1 67 2.7 WSW 24 30 13 16 1018.7 1018.7 0.0
02/06:00pm 11.0 5.0 5.1 67 2.7 WSW 26 32 14 17 1018.5 1018.5 0.0
02/05:30pm 11.5 7.0 2.3 53 4.0 SW 15 17 8 9 1018.2 1018.2 0.0
02/05:00pm 12.0 7.2 2.5 52 4.1 SSW 17 20 9 11 1018.1 1018.1 0.0
02/04:30pm 12.5 7.4 4.2 57 3.8 SSW 20 26 11 14 1017.7 1017.8 0.0
02/04:00pm 12.7 6.5 4.2 56 3.8 S 26 32 14 17 1017.2 1017.3 0.0
02/03:30pm 13.0 6.0 4.2 55 4.0 SSW 30 37 16 20 1016.9 1017.0 0.0
02/03:00pm 13.3 7.9 2.5 48 4.7 S 20 30 11 16 1016.6 1016.7 0.0
02/02:30pm 14.0 8.2 2.3 45 5.1 S 22 32 12 17 1016.2 1016.3 0.0
02/02:00pm 13.5 6.8 3.8 52 4.4 S 28 37 15 20 1016.1 1016.2 0.0
02/01:30pm 13.6 6.9 3.7 51 4.5 S 28 41 15 22 1016.0 1016.1 0.0
02/01:24pm 13.5 6.7 3.3 50 4.6 S 28 48 15 26 1016.0 1016.1 0.0
02/01:00pm 13.9 7.4 4.5 53 4.3 S 28 41 15 22 1015.8 1015.9 0.0
02/12:30pm 13.6 6.9 3.7 51 4.5 S 28 44 15 24 1015.7 1015.8 0.0
02/12:00pm 13.1 6.5 4.3 55 4.0 S 28 43 15 23 1015.7 1015.8 0.0
02/11:42am 12.4 6.0 5.1 61 3.4 S 28 46 15 25 1015.8 1015.9 0.0
02/11:30am 12.0 4.7 4.7 61 3.3 S 32 41 17 22 1015.8 1015.9 0.0
02/11:00am 12.0 5.1 4.7 61 3.3 S 30 41 16 22 1015.9 1016.0 0.0
02/10:30am 11.7 5.6 4.7 62 3.2 S 26 41 14 22 1015.7 1015.8 0.0
02/10:00am 11.3 4.6 5.4 67 2.7 S 30 41 16 22 1015.3 1015.4 0.0
02/09:30am 10.8 3.7 5.3 69 2.5 S 32 50 17 27 1015.0 1015.1 0.0
02/09:00am 10.7 4.6 5.0 68 2.6 S 26 41 14 22 1014.8 1014.9 0.8
02/08:30am 10.6 4.5 4.7 67 2.7 S 26 35 14 19 1014.6 1014.7 0.8
02/08:00am 10.6 4.2 5.4 70 2.4 S 28 37 15 20 1014.0 1014.1 0.8
02/07:30am 10.5 4.2 5.5 71 2.3 S 28 41 15 22 1013.7 1013.8 0.8
02/07:18am 10.4 4.1 5.6 72 2.2 S 28 46 15 25 1013.4 1013.5 0.8
02/07:00am 10.4 4.9 5.8 73 2.1 S 24 39 13 21 1013.0 1013.0 0.8
02/06:30am 10.3 4.8 5.7 73 2.1 S 24 37 13 20 1012.5 1012.5 0.8
02/06:00am 10.4 5.3 6.2 75 2.0 S 22 41 12 22 1011.7 1011.7 0.8
02/05:30am 10.2 6.1 6.2 76 1.9 SSE 17 28 9 15 1011.5 1011.5 0.8
02/05:00am 10.3 6.3 6.8 79 1.6 SE 17 30 9 16 1010.9 1010.9 0.8
02/04:30am 9.8 6.6 6.7 81 1.5 SE 13 24 7 13 1010.7 1010.7 0.8
02/04:00am 10.0 6.8 6.9 81 1.5 SE 13 17 7 9 1010.4 1010.4 0.6
02/03:30am 10.2 6.6 6.9 80 1.6 SSE 15 28 8 15 1010.3 1010.3 0.4
02/03:00am 9.8 6.6 6.7 81 1.5 SE 13 22 7 12 1009.9 1009.9 0.4
02/02:30am 10.5 7.8 7.2 80 1.6 SE 11 19 6 10 1009.6 1009.6 0.2
02/02:00am 10.5 7.1 7.6 82 1.4 SE 15 28 8 15 1009.3 1009.3 0.2
02/01:30am 10.4 7.5 8.0 85 1.2 SSE 13 22 7 12 1009.1 1009.1 0.2
02/01:00am 10.3 7.4 8.2 87 1.0 SE 13 20 7 11 1008.9 1008.9 0.2
02/12:31am 10.3 6.7 8.2 87 1.0 ESE 17 30 9 16 1008.7 1008.7 0.2
02/12:30am 10.3 6.7 8.2 87 1.0 ESE 17 30 9 16 1008.7 1008.7 0.2
02/12:20am 10.4 7.1 8.2 86 1.1 ESE 15 28 8 15 1008.7 1008.7 0.2
02/12:15am 10.7 7.1 8.3 85 1.2 ESE 17 26 9 14 1008.6 1008.6 0.0
02/12:00am 11.2 7.0 8.4 83 1.4 E 20 30 11 16 1008.4 1008.4 0.0
 
Date/Time
EST
Temp
°C
App
Temp
°C
Dew
Point
Rel
Hum
%
Delta-T
°C
Wind Press
QNH
hPa
Press
MSL
hPa
Rain
since 9 am
mm
Dir
 
Spd
km/h
Gust
km/h
Spd
kts
Gust
kts
01/11:30pm 12.5 9.3 9.9 84 1.3 SW 17 20 9 11 1007.9 1007.9 0.0
01/11:17pm 12.4 9.2 10.0 85 1.2 SW 17 22 9 12 1007.9 1007.9 0.0
01/11:00pm 12.2 9.0 9.9 86 1.2 SW 17 22 9 12 1007.8 1007.8 0.0
01/10:30pm 12.0 8.5 10.1 88 1.0 SW 19 26 10 14 1007.6 1007.6 0.0
01/10:00pm 12.1 7.6 10.2 88 1.0 WSW 24 30 13 16 1007.5 1007.5 0.0
01/09:30pm 12.2 7.3 10.1 87 1.1 W 26 30 14 16 1007.2 1007.2 0.0
01/09:00pm 12.3 7.5 10.2 87 1.1 W 26 30 14 16 1007.2 1007.2 0.0
01/08:42pm 12.4 8.0 10.3 87 1.1 WSW 24 32 13 17 1007.3 1007.3 0.0
01/08:30pm 12.4 7.3 10.5 88 1.0 WSW 28 32 15 17 1007.2 1007.2 0.0
01/08:08pm 12.6 7.9 10.7 88 1.0 W 26 32 14 17 1007.2 1007.2 0.0
01/08:00pm 12.4 7.3 10.5 88 1.0 W 28 33 15 18 1007.0 1007.0 0.0
01/07:37pm 12.6 9.0 10.5 87 1.1 NW 20 30 11 16 1006.5 1006.5 0.0
01/07:30pm 12.6 8.2 10.5 87 1.1 NW 24 32 13 17 1006.5 1006.5 0.0
01/07:00pm 12.6 7.9 10.5 87 1.1 NW 26 33 14 18 1006.2 1006.2 0.0
01/06:44pm 12.6 8.2 10.5 87 1.1 NW 24 30 13 16 1006.3 1006.3 0.0
01/06:30pm 12.5 8.0 10.2 86 1.2 NW 24 33 13 18 1006.2 1006.2 0.0
01/06:00pm 12.6 7.4 10.3 86 1.2 NW 28 37 15 20 1006.2 1006.2 0.0
01/05:30pm 12.7 7.9 10.4 86 1.2 NW 26 37 14 20 1006.0 1006.0 0.0
01/05:00pm 12.8 8.5 10.7 87 1.1 WNW 24 33 13 18 1005.9 1005.9 0.0
01/04:30pm 12.9 8.2 10.6 86 1.2 WNW 26 35 14 19 1005.7 1005.7 0.0
01/04:00pm 12.8 6.9 10.3 85 1.3 NW 32 41 17 22 1005.7 1005.7 0.0
01/03:30pm 13.2 7.9 10.0 81 1.6 NW 28 37 15 20 1006.0 1006.0 0.0
01/03:00pm 13.5 9.0 9.9 79 1.9 NW 24 30 13 16 1005.8 1005.8 0.0
01/02:30pm 14.0 9.8 9.6 75 2.3 WNW 22 32 12 17 1005.8 1005.8 0.0
01/02:00pm 14.6 10.4 9.6 72 2.6 NW 22 32 12 17 1005.7 1005.7 0.0
01/01:30pm 15.0 9.1 9.1 68 3.0 NW 30 37 16 20 1005.8 1005.8 0.0
01/01:00pm 15.6 11.2 9.1 65 3.3 NW 22 28 12 15 1005.9 1005.9 0.0
01/12:30pm 16.5 12.0 8.7 60 4.0 NW 22 28 12 15 1006.1 1006.1 0.0
01/12:00pm 16.6 10.2 8.6 59 4.1 NW 32 43 17 23 1006.9 1006.9 0.0
01/11:32am 17.9 11.9 7.0 49 5.4 NNW 28 48 15 26 1006.6 1006.6 0.0
01/11:30am 18.0 12.4 7.1 49 5.5 NNW 26 39 14 21 1006.6 1006.6 0.0
01/11:00am 17.9 13.4 7.0 49 5.5 N 20 33 11 18 1006.5 1006.5 0.0
01/10:30am 17.7 13.4 8.0 53 4.9 NNE 20 30 11 16 1006.5 1006.5 0.0
01/10:00am 17.8 12.6 7.2 50 5.3 NNW 24 41 13 22 1007.4 1007.4 0.0
01/09:30am 16.4 12.9 8.9 61 3.9 N 17 24 9 13 1007.4 1007.4 0.0
01/09:00am 16.0 9.5 8.0 59 4.0 NNE 32 39 17 21 1007.4 1007.4 0.0
01/08:30am 14.9 10.5 8.8 67 3.1 NE 22 28 12 15 1007.3 1007.3 0.0
01/08:00am 16.9 12.4 7.0 52 4.9 N 20 32 11 17 1008.3 1008.3 0.0
01/07:30am 17.2 12.6 6.4 49 5.3 N 20 28 11 15 1008.4 1008.4 0.0
01/07:00am 15.3 10.4 8.3 63 3.5 N 24 32 13 17 1008.2 1008.2 0.0
01/06:30am 15.2 10.1 9.1 67 3.1 NNE 26 35 14 19 1008.1 1008.1 0.0
01/06:00am 15.0 8.9 9.8 71 2.7 NNE 32 41 17 22 1008.1 1008.1 0.0
01/05:30am 15.2 9.6 10.2 72 2.6 NNE 30 41 16 22 1008.2 1008.2 0.0
01/05:00am 15.1 9.2 10.3 73 2.5 NNE 32 41 17 22 1008.4 1008.4 0.0
01/04:30am 15.0 9.1 10.4 74 2.4 NNE 32 37 17 20 1008.5 1008.5 0.0
01/04:00am 14.8 8.8 10.0 73 2.5 NNE 32 41 17 22 1008.8 1008.8 0.0
01/03:30am 14.7 8.6 9.7 72 2.6 NNE 32 37 17 20 1009.0 1009.0 0.0
01/03:00am 14.6 8.5 9.8 73 2.5 NNE 32 39 17 21 1009.2 1009.2 0.0
01/02:30am 14.3 8.2 9.7 74 2.4 NNE 32 39 17 21 1009.4 1009.5 0.0
01/02:00am 14.4 8.4 10.2 76 2.2 NNE 32 44 17 24 1009.9 1010.0 0.0
01/01:30am 14.4 8.0 10.6 78 2.0 NNE 35 48 19 26 1010.4 1010.5 0.0
01/01:00am 14.3 8.1 10.1 76 2.2 NNE 33 44 18 24 1010.8 1010.9 0.0
01/12:30am 14.1 8.5 10.3 78 2.0 NNE 30 39 16 21 1011.2 1011.3 0.0
01/12:00am 14.0 7.9 9.8 76 2.2 NNE 32 39 17 21 1011.6 1011.7 0.0
 
Date/Time
EST
Temp
°C
App
Temp
°C
Dew
Point
Rel
Hum
%
Delta-T
°C
Wind Press
QNH
hPa
Press
MSL
hPa
Rain
since 9 am
mm
Dir
 
Spd
km/h
Gust
km/h
Spd
kts
Gust
kts
31/11:30pm 14.2 8.3 9.2 72 2.5 NNE 30 39 16 21 1011.8 1011.9 0.0
31/11:00pm 14.3 8.0 8.9 70 2.7 N 32 41 17 22 1012.1 1012.2 0.0
31/10:30pm 13.1 7.8 9.7 80 1.7 NNE 28 37 15 20 1012.5 1012.6 0.0
31/10:00pm 13.3 7.9 9.5 78 1.9 NE 28 37 15 20 1013.0 1013.1 0.0
31/09:30pm 13.0 7.8 10.4 84 1.3 NE 28 33 15 18 1013.3 1013.4 0.0
31/09:00pm 12.7 8.1 9.5 81 1.6 NE 24 32 13 17 1013.6 1013.7 0.0
31/08:30pm 12.5 7.7 8.8 78 1.8 NNE 24 28 13 15 1014.0 1014.1 0.0
31/08:00pm 12.3 7.9 8.8 79 1.7 NNE 22 30 12 16 1014.1 1014.2 0.0
31/07:30pm 12.2 7.9 9.4 83 1.4 NNE 22 28 12 15 1014.2 1014.3 0.0
31/07:00pm 12.5 8.8 9.5 82 1.5 NNE 19 28 10 15 1014.3 1014.4 0.0
31/06:30pm 12.8 8.8 9.1 78 1.9 NNE 20 28 11 15 1014.3 1014.4 0.0
31/06:00pm 12.7 8.3 9.0 78 1.9 NNE 22 28 12 15 1014.4 1014.5 0.0
31/05:30pm 13.4 9.6 9.1 75 2.2 NNE 19 24 10 13 1014.3 1014.4 0.0
31/05:00pm 14.6 11.3 9.6 72 2.6 NNE 17 22 9 12 1014.4 1014.5 0.0
31/04:30pm 15.8 12.3 10.1 69 3.0 NNE 19 24 10 13 1014.4 1014.5 0.0
31/04:00pm 16.6 12.9 10.2 66 3.4 NNE 20 26 11 14 1014.5 1014.6 0.0
31/03:30pm 17.1 13.7 10.7 66 3.4 NNE 19 26 10 14 1014.7 1014.8 0.0
31/03:00pm 17.6 14.2 10.7 64 3.7 NNE 19 28 10 15 1015.1 1015.2 0.0
31/02:30pm 17.8 14.0 9.9 60 4.2 NNE 20 26 11 14 1015.4 1015.5 0.0
31/02:00pm 18.4 14.8 10.7 61 4.1 NNE 20 28 11 15 1015.7 1015.8 0.0
31/01:30pm 18.1 14.4 10.2 60 4.2 N 20 30 11 16 1016.1 1016.2 0.0
31/01:00pm 17.4 12.7 9.3 59 4.2 N 24 32 13 17 1016.4 1016.5 0.0
31/12:30pm 17.7 14.0 10.1 61 4.0 N 20 32 11 17 1016.7 1016.8 0.0
31/12:00pm 17.4 13.3 10.1 62 3.9 NNE 22 30 12 16 1017.1 1017.2 0.0
31/11:30am 17.4 13.0 10.5 64 3.7 N 24 37 13 20 1017.6 1017.7 0.0
31/11:00am 17.0 13.6 10.6 66 3.4 N 19 32 10 17 1018.2 1018.2 0.0
31/10:30am 16.6 14.4 10.9 69 3.1 N 13 26 7 14 1018.7 1018.7 0.0
31/10:00am 15.8 13.1 11.8 77 2.2 N 17 26 9 14 1019.1 1019.1 0.0
31/09:30am 14.8 12.7 12.5 86 1.3 N 15 24 8 13 1019.3 1019.3 0.0
31/09:00am 14.3 13.9 12.9 91 0.8 N 7 17 4 9 1019.4 1019.4 0.0
31/08:40am 13.9 13.7 13.0 94 0.5 NE 6 20 3 11 1019.6 1019.6 0.0
31/08:30am 13.6 13.3 12.7 94 0.5 E 6 11 3 6 1019.6 1019.6 0.0
31/08:00am 11.8 10.8 11.0 95 0.4 ENE 7 11 4 6 1019.8 1019.8 0.0
31/07:30am 8.0 6.0 7.2 95 0.4 ENE 7 11 4 6 1020.0 1020.0 0.0
31/07:00am 5.6 3.3 4.7 94 0.4 E 6 7 3 4 1019.9 1019.9 0.0
31/06:44am 5.0 2.4 4.1 94 0.4 NE 7 9 4 5 1019.7 1019.7 0.0
31/06:33am 4.2 1.4 3.3 94 0.4 ENE 7 11 4 6 1019.6 1019.6 0.0
31/06:30am 4.2 1.4 3.3 94 0.4 ENE 7 11 4 6 1019.6 1019.6 0.0
31/06:00am 3.7 0.8 2.8 94 0.4 NE 7 7 4 4 1019.7 1019.7 0.0
31/05:40am 3.7 0.8 2.7 93 0.4 ENE 7 9 4 5 1019.9 1019.9 0.0
31/05:30am 3.6 0.3 2.6 93 0.4 ENE 9 11 5 6 1019.8 1019.8 0.0
31/05:13am 4.7 1.6 3.7 93 0.4 ENE 9 9 5 5 1019.9 1019.9 0.0
31/05:00am 4.1 1.3 3.1 93 0.4 ENE 7 9 4 5 1019.9 1019.9 0.0
31/04:55am 4.7 2.0 3.7 93 0.4 ENE 7 9 4 5 1019.8 1019.8 0.0
31/04:30am 6.7 4.4 5.7 93 0.4 ENE 7 9 4 5 1019.9 1019.9 0.0
31/04:00am 6.5 4.3 5.3 92 0.5 E 6 7 3 4 1020.1 1020.1 0.0
31/03:30am 7.6 6.8 6.4 92 0.5 CALM 0 6 0 3 1020.3 1020.3 0.0
31/03:00am 9.0 7.7 7.8 92 0.6 NNE 4 9 2 5 1020.5 1020.5 0.0
31/02:30am 9.4 7.3 8.2 92 0.6 E 9 13 5 7 1020.9 1020.9 0.0
31/02:00am 7.5 4.2 6.3 92 0.5 NE 13 15 7 8 1021.0 1021.0 0.0
31/01:30am 6.1 1.7 4.7 91 0.6 ENE 17 19 9 10 1021.5 1021.5 0.0
31/01:00am 6.8 2.9 5.3 90 0.7 ENE 15 19 8 10 1021.9 1021.9 0.0
31/12:30am 7.1 3.2 5.4 89 0.8 ENE 15 17 8 9 1022.4 1022.4 0.0
31/12:00am 7.0 3.0 5.0 87 0.9 ENE 15 17 8 9 1022.8 1022.8 0.0
 
Date/Time
EST
Temp
°C
App
Temp
°C
Dew
Point
Rel
Hum
%
Delta-T
°C
Wind Press
QNH
hPa
Press
MSL
hPa
Rain
since 9 am
mm
Dir
 
Spd
km/h
Gust
km/h
Spd
kts
Gust
kts
30/11:30pm 7.7 4.8 4.8 82 1.3 ENE 9 11 5 6 1023.2 1023.2 0.0
30/11:00pm 11.0 7.6 7.7 80 1.6 NE 15 20 8 11 1023.3 1023.3 0.0
30/10:30pm 10.7 6.6 7.9 83 1.4 NE 19 24 10 13 1023.4 1023.4 0.0
30/10:00pm 9.1 6.0 7.1 87 0.9 NE 13 17 7 9 1023.6 1023.6 0.0
30/09:30pm 8.2 4.2 6.5 89 0.8 NE 17 19 9 10 1023.8 1023.8 0.0

Other Formats:

Comma delimited format used in spreadsheet applications
http://www.bom.gov.au/fwo/IDT60801/IDT60801.94980.axf

JavaScript Object Notation format (JSON) in row-major order
http://www.bom.gov.au/fwo/IDT60801/IDT60801.94980.json